sensor_id;sensor_type;location;lat;lon;timestamp;temperature;humidity
10263;DHT22;5177;50.068;8.156;2023-11-19T00:00:43;9.00;99.90
10263;DHT22;5177;50.068;8.156;2023-11-19T00:03:08;9.00;99.90
10263;DHT22;5177;50.068;8.156;2023-11-19T00:11:42;8.90;99.90
10263;DHT22;5177;50.068;8.156;2023-11-19T00:14:09;8.90;99.90
10263;DHT22;5177;50.068;8.156;2023-11-19T00:16:35;8.90;99.90
10263;DHT22;5177;50.068;8.156;2023-11-19T00:19:00;8.80;99.90
10263;DHT22;5177;50.068;8.156;2023-11-19T00:21:27;8.80;99.90
10263;DHT22;5177;50.068;8.156;2023-11-19T00:27:12;8.90;99.90
10263;DHT22;5177;50.068;8.156;2023-11-19T00:29:37;8.90;99.90
10263;DHT22;5177;50.068;8.156;2023-11-19T00:32:03;8.90;99.90
10263;DHT22;5177;50.068;8.156;2023-11-19T00:34:30;8.90;99.90
10263;DHT22;5177;50.068;8.156;2023-11-19T00:36:56;8.90;99.90
10263;DHT22;5177;50.068;8.156;2023-11-19T00:39:22;9.00;99.90
10263;DHT22;5177;50.068;8.156;2023-11-19T00:41:48;9.00;99.90
10263;DHT22;5177;50.068;8.156;2023-11-19T00:44:13;8.90;99.90
10263;DHT22;5177;50.068;8.156;2023-11-19T00:46:39;8.90;99.90
10263;DHT22;5177;50.068;8.156;2023-11-19T00:49:05;8.90;99.90
10263;DHT22;5177;50.068;8.156;2023-11-19T00:51:30;8.90;99.90
10263;DHT22;5177;50.068;8.156;2023-11-19T00:53:57;9.00;99.90
10263;DHT22;5177;50.068;8.156;2023-11-19T00:56:22;9.00;99.90
10263;DHT22;5177;50.068;8.156;2023-11-19T00:58:48;8.90;99.90
10263;DHT22;5177;50.068;8.156;2023-11-19T01:01:13;8.90;99.90
10263;DHT22;5177;50.068;8.156;2023-11-19T01:03:57;8.90;99.90
10263;DHT22;5177;50.068;8.156;2023-11-19T01:06:29;8.90;99.90
10263;DHT22;5177;50.068;8.156;2023-11-19T01:08:55;9.00;99.90
10263;DHT22;5177;50.068;8.156;2023-11-19T01:11:22;8.90;99.90
10263;DHT22;5177;50.068;8.156;2023-11-19T01:13:48;8.90;99.90
10263;DHT22;5177;50.068;8.156;2023-11-19T01:16:13;8.90;99.90
10263;DHT22;5177;50.068;8.156;2023-11-19T01:18:39;8.90;99.90
10263;DHT22;5177;50.068;8.156;2023-11-19T01:21:05;8.90;99.90
10263;DHT22;5177;50.068;8.156;2023-11-19T01:23:30;8.90;99.90
10263;DHT22;5177;50.068;8.156;2023-11-19T01:25:56;8.90;99.90
10263;DHT22;5177;50.068;8.156;2023-11-19T01:28:21;8.90;99.90
10263;DHT22;5177;50.068;8.156;2023-11-19T01:33:46;8.90;99.90
10263;DHT22;5177;50.068;8.156;2023-11-19T01:39:18;8.90;99.90
10263;DHT22;5177;50.068;8.156;2023-11-19T01:41:45;8.90;99.90
10263;DHT22;5177;50.068;8.156;2023-11-19T01:44:10;8.90;99.90
10263;DHT22;5177;50.068;8.156;2023-11-19T01:46:37;8.90;99.90
10263;DHT22;5177;50.068;8.156;2023-11-19T01:49:04;8.90;99.90
10263;DHT22;5177;50.068;8.156;2023-11-19T01:51:30;9.00;99.90
10263;DHT22;5177;50.068;8.156;2023-11-19T01:53:56;9.00;99.90
10263;DHT22;5177;50.068;8.156;2023-11-19T01:56:23;9.00;99.90
10263;DHT22;5177;50.068;8.156;2023-11-19T01:58:49;9.10;99.90
10263;DHT22;5177;50.068;8.156;2023-11-19T02:01:15;9.10;99.90
10263;DHT22;5177;50.068;8.156;2023-11-19T02:03:40;9.20;99.90
10263;DHT22;5177;50.068;8.156;2023-11-19T02:06:06;9.20;99.90
10263;DHT22;5177;50.068;8.156;2023-11-19T02:08:32;9.20;99.90
10263;DHT22;5177;50.068;8.156;2023-11-19T02:10:58;9.20;99.90
10263;DHT22;5177;50.068;8.156;2023-11-19T02:13:24;9.20;99.90
10263;DHT22;5177;50.068;8.156;2023-11-19T02:15:50;9.20;99.90
10263;DHT22;5177;50.068;8.156;2023-11-19T02:18:22;9.20;99.90
10263;DHT22;5177;50.068;8.156;2023-11-19T02:20:49;9.20;99.90
10263;DHT22;5177;50.068;8.156;2023-11-19T02:23:15;9.20;99.90
10263;DHT22;5177;50.068;8.156;2023-11-19T02:25:40;9.20;99.90
10263;DHT22;5177;50.068;8.156;2023-11-19T02:28:06;9.10;99.90
10263;DHT22;5177;50.068;8.156;2023-11-19T02:30:32;9.10;99.90
10263;DHT22;5177;50.068;8.156;2023-11-19T02:32:58;9.20;99.90
10263;DHT22;5177;50.068;8.156;2023-11-19T02:35:26;9.10;99.90
10263;DHT22;5177;50.068;8.156;2023-11-19T02:37:51;9.10;99.90
10263;DHT22;5177;50.068;8.156;2023-11-19T02:40:17;9.20;99.90
10263;DHT22;5177;50.068;8.156;2023-11-19T02:42:43;9.10;99.90
10263;DHT22;5177;50.068;8.156;2023-11-19T02:45:09;9.20;99.90
10263;DHT22;5177;50.068;8.156;2023-11-19T02:47:40;9.10;99.90
10263;DHT22;5177;50.068;8.156;2023-11-19T02:50:06;9.20;99.90
10263;DHT22;5177;50.068;8.156;2023-11-19T02:52:39;9.10;99.90
10263;DHT22;5177;50.068;8.156;2023-11-19T02:55:04;9.10;99.90
10263;DHT22;5177;50.068;8.156;2023-11-19T02:57:34;9.10;99.90
10263;DHT22;5177;50.068;8.156;2023-11-19T03:00:00;9.10;99.90
10263;DHT22;5177;50.068;8.156;2023-11-19T03:02:26;9.10;99.90
10263;DHT22;5177;50.068;8.156;2023-11-19T03:04:59;9.10;99.90
10263;DHT22;5177;50.068;8.156;2023-11-19T03:07:25;9.10;99.90
10263;DHT22;5177;50.068;8.156;2023-11-19T03:09:52;9.20;99.90
10263;DHT22;5177;50.068;8.156;2023-11-19T03:12:17;9.10;99.90
10263;DHT22;5177;50.068;8.156;2023-11-19T03:14:43;9.10;99.90
10263;DHT22;5177;50.068;8.156;2023-11-19T03:17:10;9.10;99.90
10263;DHT22;5177;50.068;8.156;2023-11-19T03:19:35;9.10;99.90
10263;DHT22;5177;50.068;8.156;2023-11-19T03:22:01;9.10;99.90
10263;DHT22;5177;50.068;8.156;2023-11-19T03:24:27;9.10;99.90
10263;DHT22;5177;50.068;8.156;2023-11-19T03:26:52;9.10;99.90
10263;DHT22;5177;50.068;8.156;2023-11-19T03:29:18;9.10;99.90
10263;DHT22;5177;50.068;8.156;2023-11-19T03:31:43;9.10;99.90
10263;DHT22;5177;50.068;8.156;2023-11-19T03:34:10;9.10;99.90
10263;DHT22;5177;50.068;8.156;2023-11-19T03:36:35;9.10;99.90
10263;DHT22;5177;50.068;8.156;2023-11-19T03:39:01;9.10;99.90
10263;DHT22;5177;50.068;8.156;2023-11-19T03:41:26;9.20;99.90
10263;DHT22;5177;50.068;8.156;2023-11-19T03:43:52;9.20;99.90
10263;DHT22;5177;50.068;8.156;2023-11-19T03:46:18;9.20;99.90
10263;DHT22;5177;50.068;8.156;2023-11-19T03:48:44;9.20;99.90
10263;DHT22;5177;50.068;8.156;2023-11-19T03:51:11;9.20;99.90
10263;DHT22;5177;50.068;8.156;2023-11-19T03:53:42;9.30;99.90
10263;DHT22;5177;50.068;8.156;2023-11-19T03:56:07;9.20;99.90
10263;DHT22;5177;50.068;8.156;2023-11-19T03:58:34;9.30;99.90
10263;DHT22;5177;50.068;8.156;2023-11-19T04:01:01;9.20;99.90
10263;DHT22;5177;50.068;8.156;2023-11-19T04:03:26;9.20;99.90
10263;DHT22;5177;50.068;8.156;2023-11-19T04:05:52;9.20;99.90
10263;DHT22;5177;50.068;8.156;2023-11-19T04:08:17;9.30;99.90
10263;DHT22;5177;50.068;8.156;2023-11-19T04:10:43;9.30;99.90
10263;DHT22;5177;50.068;8.156;2023-11-19T04:13:08;9.40;99.90
10263;DHT22;5177;50.068;8.156;2023-11-19T04:15:34;9.40;99.90
10263;DHT22;5177;50.068;8.156;2023-11-19T04:17:59;9.50;99.90
10263;DHT22;5177;50.068;8.156;2023-11-19T04:20:25;9.40;99.90
10263;DHT22;5177;50.068;8.156;2023-11-19T04:22:51;9.40;99.90
10263;DHT22;5177;50.068;8.156;2023-11-19T04:25:16;9.40;99.90
10263;DHT22;5177;50.068;8.156;2023-11-19T04:27:46;9.40;99.90
10263;DHT22;5177;50.068;8.156;2023-11-19T04:30:13;9.40;99.90
10263;DHT22;5177;50.068;8.156;2023-11-19T04:32:38;9.50;99.90
10263;DHT22;5177;50.068;8.156;2023-11-19T04:35:04;9.50;99.90
10263;DHT22;5177;50.068;8.156;2023-11-19T04:37:32;9.40;99.90
10263;DHT22;5177;50.068;8.156;2023-11-19T04:39:57;9.40;99.90
10263;DHT22;5177;50.068;8.156;2023-11-19T04:42:23;9.50;99.90
10263;DHT22;5177;50.068;8.156;2023-11-19T04:44:49;9.40;99.90
10263;DHT22;5177;50.068;8.156;2023-11-19T04:47:30;9.50;99.90
10263;DHT22;5177;50.068;8.156;2023-11-19T04:49:55;9.50;99.90
10263;DHT22;5177;50.068;8.156;2023-11-19T04:52:21;9.50;99.90
10263;DHT22;5177;50.068;8.156;2023-11-19T04:54:47;9.50;99.90
10263;DHT22;5177;50.068;8.156;2023-11-19T05:00:19;9.60;99.90
10263;DHT22;5177;50.068;8.156;2023-11-19T05:02:46;9.50;99.90
10263;DHT22;5177;50.068;8.156;2023-11-19T05:05:12;9.50;99.90
10263;DHT22;5177;50.068;8.156;2023-11-19T05:07:38;9.50;99.90
10263;DHT22;5177;50.068;8.156;2023-11-19T05:10:03;9.60;99.90
10263;DHT22;5177;50.068;8.156;2023-11-19T05:12:29;9.60;99.90
10263;DHT22;5177;50.068;8.156;2023-11-19T05:14:56;9.60;99.90
10263;DHT22;5177;50.068;8.156;2023-11-19T05:17:23;9.50;99.90
10263;DHT22;5177;50.068;8.156;2023-11-19T05:19:48;9.50;99.90
10263;DHT22;5177;50.068;8.156;2023-11-19T05:22:14;9.50;99.90
10263;DHT22;5177;50.068;8.156;2023-11-19T05:24:39;9.50;99.90
10263;DHT22;5177;50.068;8.156;2023-11-19T05:27:06;9.50;99.90
10263;DHT22;5177;50.068;8.156;2023-11-19T05:29:33;9.50;99.90
10263;DHT22;5177;50.068;8.156;2023-11-19T05:31:58;9.50;99.90
10263;DHT22;5177;50.068;8.156;2023-11-19T05:34:24;9.50;99.90
10263;DHT22;5177;50.068;8.156;2023-11-19T05:36:50;9.50;99.90
10263;DHT22;5177;50.068;8.156;2023-11-19T05:39:16;9.60;99.90
10263;DHT22;5177;50.068;8.156;2023-11-19T05:41:41;9.60;99.90
10263;DHT22;5177;50.068;8.156;2023-11-19T05:44:07;9.60;99.90
10263;DHT22;5177;50.068;8.156;2023-11-19T05:46:32;9.60;99.90
10263;DHT22;5177;50.068;8.156;2023-11-19T05:48:58;9.60;99.90
10263;DHT22;5177;50.068;8.156;2023-11-19T05:51:23;9.70;99.90
10263;DHT22;5177;50.068;8.156;2023-11-19T05:53:50;9.60;99.90
10263;DHT22;5177;50.068;8.156;2023-11-19T05:56:15;9.60;99.90
10263;DHT22;5177;50.068;8.156;2023-11-19T05:58:46;9.60;99.90
10263;DHT22;5177;50.068;8.156;2023-11-19T06:04:17;9.60;99.90
10263;DHT22;5177;50.068;8.156;2023-11-19T06:06:43;9.60;99.90
10263;DHT22;5177;50.068;8.156;2023-11-19T06:09:09;9.70;99.90
10263;DHT22;5177;50.068;8.156;2023-11-19T06:11:35;9.70;99.90
10263;DHT22;5177;50.068;8.156;2023-11-19T06:14:01;9.70;99.90
10263;DHT22;5177;50.068;8.156;2023-11-19T06:16:27;9.70;99.90
10263;DHT22;5177;50.068;8.156;2023-11-19T06:18:52;9.70;99.90
10263;DHT22;5177;50.068;8.156;2023-11-19T06:21:18;9.70;99.90
10263;DHT22;5177;50.068;8.156;2023-11-19T06:29:51;9.70;99.90
10263;DHT22;5177;50.068;8.156;2023-11-19T06:32:17;9.70;99.90
10263;DHT22;5177;50.068;8.156;2023-11-19T06:34:42;9.70;99.90
10263;DHT22;5177;50.068;8.156;2023-11-19T06:37:08;9.70;99.90
10263;DHT22;5177;50.068;8.156;2023-11-19T06:39:34;9.60;99.90
10263;DHT22;5177;50.068;8.156;2023-11-19T06:42:00;9.60;99.90
10263;DHT22;5177;50.068;8.156;2023-11-19T06:44:26;9.60;99.90
10263;DHT22;5177;50.068;8.156;2023-11-19T06:46:51;9.60;99.90
10263;DHT22;5177;50.068;8.156;2023-11-19T06:49:17;9.60;99.90
10263;DHT22;5177;50.068;8.156;2023-11-19T06:51:43;9.60;99.90
10263;DHT22;5177;50.068;8.156;2023-11-19T06:54:09;9.60;99.90
10263;DHT22;5177;50.068;8.156;2023-11-19T06:56:34;9.60;99.90
10263;DHT22;5177;50.068;8.156;2023-11-19T06:59:00;9.60;99.90
10263;DHT22;5177;50.068;8.156;2023-11-19T07:01:25;9.60;99.90
10263;DHT22;5177;50.068;8.156;2023-11-19T07:03:52;9.60;99.90
10263;DHT22;5177;50.068;8.156;2023-11-19T07:06:18;9.60;99.90
10263;DHT22;5177;50.068;8.156;2023-11-19T07:08:44;9.60;99.90
10263;DHT22;5177;50.068;8.156;2023-11-19T07:14:22;9.60;99.90
10263;DHT22;5177;50.068;8.156;2023-11-19T07:16:48;9.70;99.90
10263;DHT22;5177;50.068;8.156;2023-11-19T07:22:21;9.70;99.90
10263;DHT22;5177;50.068;8.156;2023-11-19T07:24:47;9.80;99.90
10263;DHT22;5177;50.068;8.156;2023-11-19T07:27:12;9.70;99.90
10263;DHT22;5177;50.068;8.156;2023-11-19T07:29:39;9.80;99.90
10263;DHT22;5177;50.068;8.156;2023-11-19T07:32:04;9.80;99.90
10263;DHT22;5177;50.068;8.156;2023-11-19T07:34:30;9.70;99.90
10263;DHT22;5177;50.068;8.156;2023-11-19T07:36:55;9.70;99.90
10263;DHT22;5177;50.068;8.156;2023-11-19T07:39:27;9.60;99.90
10263;DHT22;5177;50.068;8.156;2023-11-19T07:41:52;9.70;99.90
10263;DHT22;5177;50.068;8.156;2023-11-19T07:44:18;9.70;99.90
10263;DHT22;5177;50.068;8.156;2023-11-19T07:46:43;9.80;99.90
10263;DHT22;5177;50.068;8.156;2023-11-19T07:49:10;9.80;99.90
10263;DHT22;5177;50.068;8.156;2023-11-19T07:51:36;9.90;99.90
10263;DHT22;5177;50.068;8.156;2023-11-19T07:54:01;9.90;99.90
10263;DHT22;5177;50.068;8.156;2023-11-19T07:56:27;10.00;99.90
10263;DHT22;5177;50.068;8.156;2023-11-19T07:58:52;10.00;99.90
10263;DHT22;5177;50.068;8.156;2023-11-19T08:01:18;10.10;99.90
10263;DHT22;5177;50.068;8.156;2023-11-19T08:03:43;10.20;99.90
10263;DHT22;5177;50.068;8.156;2023-11-19T08:06:09;10.30;99.90
10263;DHT22;5177;50.068;8.156;2023-11-19T08:08:34;10.40;99.90
10263;DHT22;5177;50.068;8.156;2023-11-19T08:11:00;10.40;99.90
10263;DHT22;5177;50.068;8.156;2023-11-19T08:13:26;10.50;99.90
10263;DHT22;5177;50.068;8.156;2023-11-19T08:15:52;10.60;99.90
10263;DHT22;5177;50.068;8.156;2023-11-19T08:18:17;10.70;99.90
10263;DHT22;5177;50.068;8.156;2023-11-19T08:20:45;10.80;99.90
10263;DHT22;5177;50.068;8.156;2023-11-19T08:23:10;10.90;99.90
10263;DHT22;5177;50.068;8.156;2023-11-19T08:25:36;10.90;99.90
10263;DHT22;5177;50.068;8.156;2023-11-19T08:28:01;10.90;99.90
10263;DHT22;5177;50.068;8.156;2023-11-19T08:30:28;11.10;99.90
10263;DHT22;5177;50.068;8.156;2023-11-19T08:32:54;11.30;99.90
10263;DHT22;5177;50.068;8.156;2023-11-19T08:35:19;11.40;99.90
10263;DHT22;5177;50.068;8.156;2023-11-19T08:37:45;11.40;99.90
10263;DHT22;5177;50.068;8.156;2023-11-19T08:40:12;11.40;99.90
10263;DHT22;5177;50.068;8.156;2023-11-19T08:42:40;11.40;99.90
10263;DHT22;5177;50.068;8.156;2023-11-19T08:45:06;11.30;99.90
10263;DHT22;5177;50.068;8.156;2023-11-19T08:50:35;11.10;99.90
10263;DHT22;5177;50.068;8.156;2023-11-19T08:53:02;11.00;99.90
10263;DHT22;5177;50.068;8.156;2023-11-19T08:55:27;11.10;99.90
10263;DHT22;5177;50.068;8.156;2023-11-19T08:57:53;11.00;99.90
10263;DHT22;5177;50.068;8.156;2023-11-19T09:00:19;11.00;99.90
10263;DHT22;5177;50.068;8.156;2023-11-19T09:02:46;11.00;99.90
10263;DHT22;5177;50.068;8.156;2023-11-19T09:05:11;11.00;99.90
10263;DHT22;5177;50.068;8.156;2023-11-19T09:07:38;10.90;99.90
10263;DHT22;5177;50.068;8.156;2023-11-19T09:10:04;10.90;99.90
10263;DHT22;5177;50.068;8.156;2023-11-19T09:12:31;10.90;99.90
10263;DHT22;5177;50.068;8.156;2023-11-19T09:14:56;11.10;99.90
10263;DHT22;5177;50.068;8.156;2023-11-19T09:17:23;11.40;99.90
10263;DHT22;5177;50.068;8.156;2023-11-19T09:19:49;11.80;99.90
10263;DHT22;5177;50.068;8.156;2023-11-19T09:22:14;11.90;99.90
10263;DHT22;5177;50.068;8.156;2023-11-19T09:24:40;12.20;99.90
10263;DHT22;5177;50.068;8.156;2023-11-19T09:27:05;12.40;99.90
10263;DHT22;5177;50.068;8.156;2023-11-19T09:29:31;12.80;99.90
10263;DHT22;5177;50.068;8.156;2023-11-19T09:31:57;13.10;99.90
10263;DHT22;5177;50.068;8.156;2023-11-19T09:34:22;13.50;1.00
10263;DHT22;5177;50.068;8.156;2023-11-19T09:36:48;13.80;1.00
10263;DHT22;5177;50.068;8.156;2023-11-19T09:42:16;14.40;99.90
10263;DHT22;5177;50.068;8.156;2023-11-19T09:44:43;14.60;1.00
10263;DHT22;5177;50.068;8.156;2023-11-19T09:47:08;14.70;99.90
10263;DHT22;5177;50.068;8.156;2023-11-19T09:49:34;14.70;1.00
10263;DHT22;5177;50.068;8.156;2023-11-19T09:55:04;14.90;1.00
10263;DHT22;5177;50.068;8.156;2023-11-19T09:57:29;15.20;1.00
10263;DHT22;5177;50.068;8.156;2023-11-19T09:59:58;15.20;99.90
10263;DHT22;5177;50.068;8.156;2023-11-19T10:02:23;15.30;99.90
10263;DHT22;5177;50.068;8.156;2023-11-19T10:04:49;15.30;99.90
10263;DHT22;5177;50.068;8.156;2023-11-19T10:10:03;15.40;99.90
10263;DHT22;5177;50.068;8.156;2023-11-19T10:12:32;15.40;99.90
10263;DHT22;5177;50.068;8.156;2023-11-19T10:14:58;15.50;99.90
10263;DHT22;5177;50.068;8.156;2023-11-19T10:17:42;15.50;1.00
10263;DHT22;5177;50.068;8.156;2023-11-19T10:20:08;15.50;81.30
10263;DHT22;5177;50.068;8.156;2023-11-19T10:22:36;15.70;99.90
10263;DHT22;5177;50.068;8.156;2023-11-19T10:28:08;15.80;1.00
10263;DHT22;5177;50.068;8.156;2023-11-19T10:30:33;15.90;99.90
10263;DHT22;5177;50.068;8.156;2023-11-19T10:33:06;16.10;99.90
10263;DHT22;5177;50.068;8.156;2023-11-19T10:35:36;16.20;1.00
10263;DHT22;5177;50.068;8.156;2023-11-19T10:38:14;16.20;99.90
10263;DHT22;5177;50.068;8.156;2023-11-19T10:40:43;16.30;99.90
10263;DHT22;5177;50.068;8.156;2023-11-19T10:43:09;16.30;99.90
10263;DHT22;5177;50.068;8.156;2023-11-19T10:45:38;16.30;99.90
10263;DHT22;5177;50.068;8.156;2023-11-19T10:48:04;16.20;99.90
10263;DHT22;5177;50.068;8.156;2023-11-19T10:50:33;15.90;99.90
10263;DHT22;5177;50.068;8.156;2023-11-19T10:52:59;15.60;99.90
10263;DHT22;5177;50.068;8.156;2023-11-19T10:58:32;15.20;1.00
10263;DHT22;5177;50.068;8.156;2023-11-19T11:00:59;14.90;1.00
10263;DHT22;5177;50.068;8.156;2023-11-19T11:03:29;14.90;56.60
10263;DHT22;5177;50.068;8.156;2023-11-19T11:05:57;15.00;1.00
10263;DHT22;5177;50.068;8.156;2023-11-19T11:08:23;15.00;1.00
10263;DHT22;5177;50.068;8.156;2023-11-19T11:10:55;15.40;1.00
10263;DHT22;5177;50.068;8.156;2023-11-19T11:13:24;15.60;99.90
10263;DHT22;5177;50.068;8.156;2023-11-19T11:15:50;15.70;99.90
10263;DHT22;5177;50.068;8.156;2023-11-19T11:18:16;15.60;99.90
10263;DHT22;5177;50.068;8.156;2023-11-19T11:20:45;15.70;99.90
10263;DHT22;5177;50.068;8.156;2023-11-19T11:28:58;16.40;1.00
10263;DHT22;5177;50.068;8.156;2023-11-19T11:34:03;16.40;1.00
10263;DHT22;5177;50.068;8.156;2023-11-19T11:36:31;16.40;1.00
10263;DHT22;5177;50.068;8.156;2023-11-19T11:39:01;16.40;1.00
10263;DHT22;5177;50.068;8.156;2023-11-19T11:41:28;16.40;1.00
10263;DHT22;5177;50.068;8.156;2023-11-19T11:47:19;16.40;1.00
10263;DHT22;5177;50.068;8.156;2023-11-19T11:49:45;16.50;1.00
10263;DHT22;5177;50.068;8.156;2023-11-19T11:52:13;16.60;1.00
10263;DHT22;5177;50.068;8.156;2023-11-19T11:54:41;16.60;1.00
10263;DHT22;5177;50.068;8.156;2023-11-19T11:57:07;16.60;1.00
10263;DHT22;5177;50.068;8.156;2023-11-19T12:02:33;16.90;1.00
10263;DHT22;5177;50.068;8.156;2023-11-19T12:04:59;17.00;1.00
10263;DHT22;5177;50.068;8.156;2023-11-19T12:07:29;17.10;1.00
10263;DHT22;5177;50.068;8.156;2023-11-19T12:10:28;17.20;1.00
10263;DHT22;5177;50.068;8.156;2023-11-19T12:12:47;17.20;1.00
10263;DHT22;5177;50.068;8.156;2023-11-19T12:15:13;17.00;1.00
10263;DHT22;5177;50.068;8.156;2023-11-19T12:17:44;16.90;1.00
10263;DHT22;5177;50.068;8.156;2023-11-19T12:20:12;17.00;1.00
10263;DHT22;5177;50.068;8.156;2023-11-19T12:22:38;16.90;1.00
10263;DHT22;5177;50.068;8.156;2023-11-19T12:25:07;16.70;1.00
10263;DHT22;5177;50.068;8.156;2023-11-19T12:27:34;16.60;1.00
10263;DHT22;5177;50.068;8.156;2023-11-19T12:30:00;16.50;1.00
10263;DHT22;5177;50.068;8.156;2023-11-19T12:32:26;16.60;99.90
10263;DHT22;5177;50.068;8.156;2023-11-19T12:34:55;16.60;1.00
10263;DHT22;5177;50.068;8.156;2023-11-19T12:37:20;16.70;99.90
10263;DHT22;5177;50.068;8.156;2023-11-19T12:39:46;16.50;99.90
10263;DHT22;5177;50.068;8.156;2023-11-19T12:42:11;16.30;99.90
10263;DHT22;5177;50.068;8.156;2023-11-19T12:44:38;16.20;99.90
10263;DHT22;5177;50.068;8.156;2023-11-19T12:47:07;16.20;99.90
10263;DHT22;5177;50.068;8.156;2023-11-19T12:49:33;16.30;99.90
10263;DHT22;5177;50.068;8.156;2023-11-19T12:51:59;16.20;99.90
10263;DHT22;5177;50.068;8.156;2023-11-19T12:54:35;16.20;5.10
10263;DHT22;5177;50.068;8.156;2023-11-19T12:57:01;16.20;99.90
10263;DHT22;5177;50.068;8.156;2023-11-19T12:59:26;16.10;66.90
10263;DHT22;5177;50.068;8.156;2023-11-19T13:01:58;15.90;24.00
10263;DHT22;5177;50.068;8.156;2023-11-19T13:04:27;15.80;99.90
10263;DHT22;5177;50.068;8.156;2023-11-19T13:06:53;15.60;99.90
10263;DHT22;5177;50.068;8.156;2023-11-19T13:09:21;15.60;99.90
10263;DHT22;5177;50.068;8.156;2023-11-19T13:11:47;15.50;99.90
10263;DHT22;5177;50.068;8.156;2023-11-19T13:14:12;15.50;99.90
10263;DHT22;5177;50.068;8.156;2023-11-19T13:16:38;15.60;99.90
10263;DHT22;5177;50.068;8.156;2023-11-19T13:19:04;15.70;99.90
10263;DHT22;5177;50.068;8.156;2023-11-19T13:21:30;15.80;99.90
10263;DHT22;5177;50.068;8.156;2023-11-19T13:23:56;15.90;95.10
10263;DHT22;5177;50.068;8.156;2023-11-19T13:26:21;15.90;99.90
10263;DHT22;5177;50.068;8.156;2023-11-19T13:28:47;16.00;67.60
10263;DHT22;5177;50.068;8.156;2023-11-19T13:31:12;16.00;99.90
10263;DHT22;5177;50.068;8.156;2023-11-19T13:33:38;15.90;99.90
10263;DHT22;5177;50.068;8.156;2023-11-19T13:36:04;16.00;94.20
10263;DHT22;5177;50.068;8.156;2023-11-19T13:38:34;16.10;6.50
10263;DHT22;5177;50.068;8.156;2023-11-19T13:41:03;16.20;99.90
10263;DHT22;5177;50.068;8.156;2023-11-19T13:43:29;16.20;99.90
10263;DHT22;5177;50.068;8.156;2023-11-19T13:45:55;16.20;14.80
10263;DHT22;5177;50.068;8.156;2023-11-19T13:48:21;16.30;99.90
10263;DHT22;5177;50.068;8.156;2023-11-19T13:50:47;16.20;1.00
10263;DHT22;5177;50.068;8.156;2023-11-19T13:53:12;16.30;1.00
10263;DHT22;5177;50.068;8.156;2023-11-19T13:55:38;16.30;1.00
10263;DHT22;5177;50.068;8.156;2023-11-19T13:58:03;16.20;1.00
10263;DHT22;5177;50.068;8.156;2023-11-19T14:00:29;16.10;1.00
10263;DHT22;5177;50.068;8.156;2023-11-19T14:02:54;16.10;1.00
10263;DHT22;5177;50.068;8.156;2023-11-19T14:05:20;16.00;35.30
10263;DHT22;5177;50.068;8.156;2023-11-19T14:07:45;15.90;30.60
10263;DHT22;5177;50.068;8.156;2023-11-19T14:10:14;15.90;72.00
10263;DHT22;5177;50.068;8.156;2023-11-19T14:12:40;15.90;1.00
10263;DHT22;5177;50.068;8.156;2023-11-19T14:15:06;15.80;13.10
10263;DHT22;5177;50.068;8.156;2023-11-19T14:17:33;15.80;83.40
10263;DHT22;5177;50.068;8.156;2023-11-19T14:19:59;15.70;85.20
10263;DHT22;5177;50.068;8.156;2023-11-19T14:22:25;15.60;99.90
10263;DHT22;5177;50.068;8.156;2023-11-19T14:24:50;15.50;99.90
10263;DHT22;5177;50.068;8.156;2023-11-19T14:27:16;15.40;99.90
10263;DHT22;5177;50.068;8.156;2023-11-19T14:29:44;15.30;99.70
10263;DHT22;5177;50.068;8.156;2023-11-19T14:32:12;15.40;99.90
10263;DHT22;5177;50.068;8.156;2023-11-19T14:34:38;15.30;99.90
10263;DHT22;5177;50.068;8.156;2023-11-19T14:37:03;15.20;99.90
10263;DHT22;5177;50.068;8.156;2023-11-19T14:39:29;15.10;99.90
10263;DHT22;5177;50.068;8.156;2023-11-19T14:42:05;15.00;99.90
10263;DHT22;5177;50.068;8.156;2023-11-19T14:44:34;15.00;99.90
10263;DHT22;5177;50.068;8.156;2023-11-19T14:46:59;15.00;99.90
10263;DHT22;5177;50.068;8.156;2023-11-19T14:49:27;14.90;99.90
10263;DHT22;5177;50.068;8.156;2023-11-19T14:51:52;14.70;99.90
10263;DHT22;5177;50.068;8.156;2023-11-19T14:54:18;14.70;99.90
10263;DHT22;5177;50.068;8.156;2023-11-19T14:56:44;14.70;99.90
10263;DHT22;5177;50.068;8.156;2023-11-19T14:59:10;14.60;99.90
10263;DHT22;5177;50.068;8.156;2023-11-19T15:01:35;14.50;99.90
10263;DHT22;5177;50.068;8.156;2023-11-19T15:04:01;14.50;99.90
10263;DHT22;5177;50.068;8.156;2023-11-19T15:06:26;14.30;99.90
10263;DHT22;5177;50.068;8.156;2023-11-19T15:08:52;14.40;99.90
10263;DHT22;5177;50.068;8.156;2023-11-19T15:11:18;14.30;99.90
10263;DHT22;5177;50.068;8.156;2023-11-19T15:13:43;14.40;99.90
10263;DHT22;5177;50.068;8.156;2023-11-19T15:16:09;14.20;99.90
10263;DHT22;5177;50.068;8.156;2023-11-19T15:18:39;14.20;1.00
10263;DHT22;5177;50.068;8.156;2023-11-19T15:21:04;14.10;1.00
10263;DHT22;5177;50.068;8.156;2023-11-19T15:23:30;14.10;1.00
10263;DHT22;5177;50.068;8.156;2023-11-19T15:25:55;14.00;1.00
10263;DHT22;5177;50.068;8.156;2023-11-19T15:28:21;14.00;1.00
10263;DHT22;5177;50.068;8.156;2023-11-19T15:30:47;14.00;1.00
10263;DHT22;5177;50.068;8.156;2023-11-19T15:33:12;14.00;1.00
10263;DHT22;5177;50.068;8.156;2023-11-19T15:35:38;13.90;1.00
10263;DHT22;5177;50.068;8.156;2023-11-19T15:38:04;13.90;1.00
10263;DHT22;5177;50.068;8.156;2023-11-19T15:40:30;13.80;1.00
10263;DHT22;5177;50.068;8.156;2023-11-19T15:42:56;13.70;1.00
10263;DHT22;5177;50.068;8.156;2023-11-19T15:45:23;13.70;1.00
10263;DHT22;5177;50.068;8.156;2023-11-19T15:47:51;13.60;1.00
10263;DHT22;5177;50.068;8.156;2023-11-19T15:50:17;13.60;1.00
10263;DHT22;5177;50.068;8.156;2023-11-19T15:52:42;13.60;1.00
10263;DHT22;5177;50.068;8.156;2023-11-19T15:55:10;13.60;1.00
10263;DHT22;5177;50.068;8.156;2023-11-19T15:57:37;13.50;1.00
10263;DHT22;5177;50.068;8.156;2023-11-19T16:00:03;13.40;1.00
10263;DHT22;5177;50.068;8.156;2023-11-19T16:02:29;13.40;1.00
10263;DHT22;5177;50.068;8.156;2023-11-19T16:04:55;13.40;1.00
10263;DHT22;5177;50.068;8.156;2023-11-19T16:07:21;13.40;1.00
10263;DHT22;5177;50.068;8.156;2023-11-19T16:09:47;13.40;1.00
10263;DHT22;5177;50.068;8.156;2023-11-19T16:12:13;13.40;1.00
10263;DHT22;5177;50.068;8.156;2023-11-19T16:14:39;13.50;1.00
10263;DHT22;5177;50.068;8.156;2023-11-19T16:17:04;13.40;1.00
10263;DHT22;5177;50.068;8.156;2023-11-19T16:19:31;13.40;1.00
10263;DHT22;5177;50.068;8.156;2023-11-19T16:21:57;13.30;1.00
10263;DHT22;5177;50.068;8.156;2023-11-19T16:24:22;13.30;1.00
10263;DHT22;5177;50.068;8.156;2023-11-19T16:26:48;13.30;1.00
10263;DHT22;5177;50.068;8.156;2023-11-19T16:29:13;13.30;1.00
10263;DHT22;5177;50.068;8.156;2023-11-19T16:31:39;13.30;1.00
10263;DHT22;5177;50.068;8.156;2023-11-19T16:34:08;13.20;1.00
10263;DHT22;5177;50.068;8.156;2023-11-19T16:36:34;13.20;1.00
10263;DHT22;5177;50.068;8.156;2023-11-19T16:39:00;13.10;1.00
10263;DHT22;5177;50.068;8.156;2023-11-19T16:41:25;13.00;1.00
10263;DHT22;5177;50.068;8.156;2023-11-19T16:43:51;13.00;67.30
10263;DHT22;5177;50.068;8.156;2023-11-19T16:46:18;12.90;74.00
10263;DHT22;5177;50.068;8.156;2023-11-19T16:48:47;12.90;99.90
10263;DHT22;5177;50.068;8.156;2023-11-19T16:51:15;12.90;13.50
10263;DHT22;5177;50.068;8.156;2023-11-19T16:53:44;13.00;5.60
10263;DHT22;5177;50.068;8.156;2023-11-19T16:56:11;13.00;1.00
10263;DHT22;5177;50.068;8.156;2023-11-19T16:58:37;13.00;1.00